Time;durP1;ratioP1;P1;durP2;ratioP2;P2;SDS_P1;SDS_P2;PMS_P1;PMS_P2;Temp;Humidity;BMP_temperature;BMP_pressure;BME280_temperature;BME280_humidity;BME280_pressure;Samples;Min_cycle;Max_cycle;Signal;HPM_P1;HPM_P2
2021/08/13 00:01:37;;;;;;;15.90;10.73;;;;;;;17.28;76.19;100763.84;5085420;28;20021;-65
2021/08/13 00:04:03;;;;;;;13.98;10.35;;;;;;;17.31;76.12;100763.75;5085592;28;20059;-65
2021/08/13 00:06:28;;;;;;;12.68;10.55;;;;;;;17.28;76.21;100755.97;5085142;28;20048;-65
2021/08/13 00:08:54;;;;;;;19.25;11.50;;;;;;;17.26;76.44;100755.16;5083970;28;20024;-65
2021/08/13 00:11:19;;;;;;;12.80;10.80;;;;;;;17.25;76.23;100755.19;5085311;28;20497;-65
2021/08/13 00:13:44;;;;;;;14.60;11.25;;;;;;;17.22;76.25;100757.00;5085219;28;20080;-65
2021/08/13 00:16:10;;;;;;;15.27;11.43;;;;;;;17.23;76.19;100757.88;5085119;28;20032;-65
2021/08/13 00:18:35;;;;;;;15.07;11.18;;;;;;;17.22;76.40;100750.91;5084958;28;20049;-65
2021/08/13 00:21:01;;;;;;;16.88;12.07;;;;;;;17.19;76.79;100750.97;5085013;28;20017;-65
2021/08/13 00:23:26;;;;;;;14.93;11.38;;;;;;;17.16;76.88;100757.19;5085010;28;20060;-65
2021/08/13 00:25:51;;;;;;;15.05;11.35;;;;;;;17.16;76.63;100757.19;5085074;28;20028;-65
2021/08/13 00:28:17;;;;;;;16.45;12.35;;;;;;;17.21;77.05;100757.91;5083586;28;20465;-65
2021/08/13 00:30:42;;;;;;;14.75;11.82;;;;;;;17.20;77.04;100752.72;5084985;28;20016;-65
2021/08/13 00:33:07;;;;;;;14.90;11.25;;;;;;;17.24;77.23;100762.19;5083521;28;20081;-65
2021/08/13 00:35:33;;;;;;;15.70;12.77;;;;;;;17.27;77.11;100756.84;5084822;28;20062;-65
2021/08/13 00:37:59;;;;;;;15.48;12.18;;;;;;;17.29;77.26;100755.06;5084451;28;20024;-65
2021/08/13 00:40:24;;;;;;;18.85;12.88;;;;;;;17.33;77.17;100759.28;5084659;28;20097;-65
2021/08/13 00:42:50;;;;;;;18.75;13.23;;;;;;;17.35;77.05;100759.25;5084596;28;20055;-65
2021/08/13 00:45:16;;;;;;;16.48;11.82;;;;;;;17.37;77.29;100760.06;5084625;28;20028;-65
2021/08/13 00:47:41;;;;;;;13.95;11.98;;;;;;;17.40;77.08;100764.34;5084826;28;20039;-65
2021/08/13 00:50:07;;;;;;;15.65;12.68;;;;;;;17.41;77.16;100756.41;5084358;28;20040;-65
2021/08/13 00:52:33;;;;;;;15.98;12.45;;;;;;;17.40;77.20;100765.22;5084703;28;20025;-65
2021/08/13 00:54:58;;;;;;;17.52;13.00;;;;;;;17.38;77.53;100748.66;5084302;28;20102;-65
2021/08/13 00:57:24;;;;;;;16.60;12.45;;;;;;;17.40;77.70;100753.84;5084560;28;20027;-65
2021/08/13 00:59:50;;;;;;;19.63;13.93;;;;;;;17.36;77.76;100750.47;5084293;28;20372;-65
2021/08/13 01:02:16;;;;;;;16.70;13.63;;;;;;;17.38;77.62;100750.44;5084251;28;20025;-65
2021/08/13 01:04:41;;;;;;;15.25;13.23;;;;;;;17.43;77.27;100754.63;5083956;28;20027;-65
2021/08/13 01:07:07;;;;;;;15.40;12.43;;;;;;;17.40;77.40;100745.97;5082749;28;20016;-65
2021/08/13 01:09:34;;;;;;;18.40;13.38;;;;;;;17.36;77.80;100741.75;5084172;28;20381;-65
2021/08/13 01:12:28;;;;;;;19.77;14.75;;;;;;;17.33;77.65;100738.28;5084084;28;20020;-65
2021/08/13 01:15:07;;;;;;;20.00;15.60;;;;;;;17.28;77.81;100748.09;5084044;28;20105;-66
2021/08/13 01:17:42;;;;;;;19.40;14.38;;;;;;;17.25;77.89;100736.84;5084040;28;20503;-65
2021/08/13 01:20:29;;;;;;;19.10;12.70;;;;;;;17.26;77.91;100741.16;5084062;28;20115;-65
2021/08/13 01:23:05;;;;;;;20.73;15.23;;;;;;;17.19;78.03;100740.50;5083847;28;20055;-64
2021/08/13 01:25:36;;;;;;;21.10;15.52;;;;;;;17.14;78.44;100738.00;5082848;28;20029;-64
2021/08/13 01:28:13;;;;;;;19.27;14.65;;;;;;;17.08;78.37;100730.31;5083996;28;20025;-65
2021/08/13 01:30:39;;;;;;;21.42;14.05;;;;;;;17.04;78.50;100724.31;5083877;28;20029;-66
2021/08/13 01:33:12;;;;;;;18.92;13.35;;;;;;;17.09;78.70;100730.28;5083838;28;20063;-65
2021/08/13 01:35:42;;;;;;;21.52;14.20;;;;;;;16.98;78.75;100721.88;5083737;28;20031;-64
2021/08/13 01:38:27;;;;;;;22.73;16.13;;;;;;;16.96;78.67;100729.75;5083919;28;20027;-65
2021/08/13 01:40:56;;;;;;;18.02;14.65;;;;;;;16.92;79.04;100728.16;5083651;28;20050;-65
2021/08/13 01:43:24;;;;;;;21.05;15.73;;;;;;;16.90;78.94;100729.94;5082484;28;20388;-65
2021/08/13 01:45:50;;;;;;;22.30;16.45;;;;;;;16.90;79.30;100719.47;5083807;28;20088;-65
2021/08/13 01:48:18;;;;;;;26.60;17.98;;;;;;;16.95;79.22;100719.31;5083679;28;20076;-65
2021/08/13 01:50:44;;;;;;;26.33;19.27;;;;;;;17.01;79.21;100705.19;5083765;28;20020;-65
2021/08/13 01:53:10;;;;;;;25.63;17.67;;;;;;;17.02;80.04;100706.88;5083843;28;20028;-65
2021/08/13 01:55:36;;;;;;;23.67;17.30;;;;;;;17.05;79.91;100697.16;5083874;28;20024;-65
2021/08/13 01:58:02;;;;;;;31.27;20.25;;;;;;;16.98;80.29;100712.22;5083549;28;20032;-65
2021/08/13 02:00:28;;;;;;;29.73;18.70;;;;;;;16.92;80.80;100711.53;5083616;28;20075;-65
2021/08/13 02:02:56;;;;;;;24.17;19.83;;;;;;;16.87;80.19;100719.56;5083613;28;20032;-65
2021/08/13 02:05:25;;;;;;;27.70;19.13;;;;;;;16.82;80.29;100713.59;5083682;28;20021;-65
2021/08/13 02:07:52;;;;;;;26.23;19.63;;;;;;;16.76;80.43;100716.41;5083736;28;20031;-65
2021/08/13 02:10:20;;;;;;;24.13;18.60;;;;;;;16.64;80.42;100705.38;5083508;28;20029;-65
2021/08/13 02:12:46;;;;;;;29.75;19.83;;;;;;;16.56;80.62;100702.97;5083797;28;20017;-65
2021/08/13 02:15:12;;;;;;;26.80;19.92;;;;;;;16.57;80.76;100702.06;5083343;28;20600;-65
2021/08/13 02:17:41;;;;;;;31.95;19.27;;;;;;;16.50;81.38;100692.69;5084601;28;20053;-65
2021/08/13 02:20:10;;;;;;;31.23;20.15;;;;;;;16.51;81.73;100689.16;5087408;28;20052;-64
2021/08/13 02:22:35;;;;;;;29.55;20.80;;;;;;;16.46;82.07;100675.31;5087303;28;20036;-65
2021/08/13 02:25:03;;;;;;;31.17;20.70;;;;;;;16.50;82.55;100676.97;5087225;28;20024;-64
2021/08/13 02:27:29;;;;;;;30.95;22.20;;;;;;;16.52;82.55;100676.91;5085792;28;20021;-64
2021/08/13 02:29:55;;;;;;;28.38;19.75;;;;;;;16.47;83.01;100671.78;5087236;28;20028;-64
2021/08/13 02:32:21;;;;;;;34.45;23.00;;;;;;;16.45;83.51;100665.75;5087293;28;20039;-64
2021/08/13 02:34:49;;;;;;;37.70;23.38;;;;;;;16.45;83.64;100673.59;5087088;28;20031;-64
2021/08/13 02:37:22;;;;;;;30.67;22.98;;;;;;;16.43;83.68;100670.16;5087138;28;20044;-64
2021/08/13 02:40:02;;;;;;;38.40;25.20;;;;;;;16.38;83.46;100677.28;5087228;28;20364;-64
2021/08/13 02:42:36;;;;;;;34.10;25.58;;;;;;;16.33;83.79;100677.41;5085551;28;20048;-65
2021/08/13 02:45:02;;;;;;;45.08;29.25;;;;;;;16.30;83.78;100674.88;5086905;28;20032;-65
2021/08/13 02:47:29;;;;;;;49.58;27.85;;;;;;;16.27;83.89;100667.97;5087028;28;20028;-65
2021/08/13 02:49:59;;;;;;;48.65;33.13;;;;;;;16.27;83.91;100673.22;5086768;28;20027;-64
2021/08/13 02:52:29;;;;;;;53.58;35.15;;;;;;;16.30;83.99;100664.41;5086977;28;20036;-64
2021/08/13 02:55:00;;;;;;;63.53;37.50;;;;;;;16.37;84.35;100658.09;5086753;28;20044;-64
2021/08/13 02:57:30;;;;;;;62.63;38.75;;;;;;;16.43;84.33;100664.91;5086520;28;20031;-64
2021/08/13 02:59:56;;;;;;;65.70;40.20;;;;;;;16.48;84.66;100665.66;5086745;28;20105;-64
2021/08/13 03:02:24;;;;;;;61.95;39.10;;;;;;;16.53;84.37;100661.16;5085159;28;20122;-64
2021/08/13 03:04:52;;;;;;;73.03;43.35;;;;;;;16.57;84.60;100657.50;5086401;28;20523;-64
2021/08/13 03:07:19;;;;;;;74.25;43.38;;;;;;;16.63;84.90;100664.31;5086545;28;20025;-64
2021/08/13 03:09:46;;;;;;;71.93;43.88;;;;;;;16.66;84.84;100666.00;5086722;28;20451;-64
2021/08/13 03:12:12;;;;;;;70.70;43.72;;;;;;;16.73;85.53;100663.16;5086486;28;20415;-64
2021/08/13 03:14:38;;;;;;;82.25;43.55;;;;;;;16.74;85.25;100661.41;5086392;28;20054;-64
2021/08/13 03:17:04;;;;;;;73.45;43.97;;;;;;;16.79;84.99;100656.84;5086331;28;20638;-66
2021/08/13 03:19:29;;;;;;;78.30;47.63;;;;;;;16.84;85.07;100667.19;5086161;28;20669;-64
2021/08/13 03:21:55;;;;;;;87.85;45.25;;;;;;;16.88;85.36;100665.34;5086202;28;20024;-64
2021/08/13 03:24:21;;;;;;;82.57;46.95;;;;;;;16.90;85.29;100666.19;5086499;28;20112;-64
2021/08/13 03:26:47;;;;;;;79.30;46.17;;;;;;;16.90;85.35;100660.94;5086087;28;20025;-64
2021/08/13 03:29:13;;;;;;;91.38;48.10;;;;;;;16.91;85.31;100667.88;5085977;28;20051;-64
2021/08/13 03:31:43;;;;;;;83.95;47.78;;;;;;;16.93;84.92;100666.06;5086153;28;20097;-64
2021/08/13 03:34:09;;;;;;;86.07;48.97;;;;;;;16.94;85.01;100673.03;5086073;28;20016;-64
2021/08/13 03:36:36;;;;;;;77.65;46.13;;;;;;;16.92;85.25;100656.47;5085839;28;20041;-64
2021/08/13 03:39:01;;;;;;;83.90;48.78;;;;;;;16.93;85.22;100666.06;5085812;28;20028;-64
2021/08/13 03:41:26;;;;;;;90.80;50.00;;;;;;;16.88;85.35;100662.72;5085856;28;20024;-64
2021/08/13 03:43:52;;;;;;;103.40;51.40;;;;;;;16.94;85.34;100665.16;5085905;28;20028;-64
2021/08/13 03:46:18;;;;;;;94.82;50.15;;;;;;;16.93;85.49;100666.91;5085835;28;20392;-64
2021/08/13 03:48:43;;;;;;;95.65;51.05;;;;;;;16.93;85.31;100671.31;5085625;28;20013;-64
2021/08/13 03:51:09;;;;;;;101.07;49.60;;;;;;;16.95;85.50;100678.22;5085684;28;20041;-64
2021/08/13 03:53:34;;;;;;;94.88;51.28;;;;;;;16.96;85.82;100679.09;5085618;28;20036;-64
2021/08/13 03:55:59;;;;;;;95.15;48.97;;;;;;;16.97;85.63;100665.06;5085783;28;20044;-64
2021/08/13 03:58:25;;;;;;;91.55;48.97;;;;;;;17.01;86.00;100669.31;5085442;28;20032;-64
2021/08/13 04:00:50;;;;;;;86.60;49.35;;;;;;;17.07;86.00;100678.75;5085464;28;20056;-65
2021/08/13 04:03:15;;;;;;;86.00;47.70;;;;;;;17.08;86.04;100673.50;5083971;28;20032;-65
2021/08/13 04:05:41;;;;;;;78.18;45.10;;;;;;;17.20;85.82;100676.63;5085241;28;20025;-65
2021/08/13 04:08:06;;;;;;;71.93;42.38;;;;;;;17.24;86.05;100675.63;5085353;28;20056;-64
2021/08/13 04:10:31;;;;;;;75.57;42.38;;;;;;;17.24;85.99;100674.78;5085488;28;20082;-65
2021/08/13 04:12:57;;;;;;;60.75;38.90;;;;;;;17.25;86.21;100676.50;5085368;28;20108;-65
2021/08/13 04:15:22;;;;;;;62.22;38.92;;;;;;;17.22;86.21;100669.59;5085462;28;20047;-65
2021/08/13 04:17:48;;;;;;;54.67;37.38;;;;;;;17.30;86.10;100678.03;5085060;28;20057;-65
2021/08/13 04:20:14;;;;;;;58.50;36.88;;;;;;;17.23;86.12;100655.56;5085205;28;20050;-65
2021/08/13 04:22:39;;;;;;;59.92;36.72;;;;;;;17.35;86.19;100664.78;5084796;28;20089;-64
2021/08/13 04:25:05;;;;;;;55.15;37.03;;;;;;;17.37;86.04;100669.97;5085162;28;20028;-65
2021/08/13 04:27:30;;;;;;;50.65;34.90;;;;;;;17.43;85.87;100667.16;5084868;28;20043;-64
2021/08/13 04:29:56;;;;;;;49.47;33.70;;;;;;;17.49;86.15;100666.97;5084916;28;20078;-64
2021/08/13 04:32:21;;;;;;;49.75;33.33;;;;;;;17.56;85.87;100662.34;5084725;28;20028;-65
2021/08/13 04:34:46;;;;;;;46.22;31.33;;;;;;;17.64;85.98;100667.34;5083419;28;20024;-65
2021/08/13 04:37:12;;;;;;;36.15;27.38;;;;;;;17.79;85.91;100666.84;5084483;28;20042;-65
2021/08/13 04:39:37;;;;;;;33.28;23.92;;;;;;;17.96;86.11;100675.88;5084262;28;20229;-64
2021/08/13 04:42:03;;;;;;;34.60;23.10;;;;;;;18.06;85.70;100671.16;5084470;28;20017;-65
2021/08/13 04:44:28;;;;;;;34.03;23.63;;;;;;;18.17;84.88;100676.06;5083404;28;20473;-66
2021/08/13 04:46:54;;;;;;;31.90;21.48;;;;;;;18.19;84.94;100669.84;5084572;28;20059;-66
2021/08/13 04:49:19;;;;;;;30.98;20.05;;;;;;;18.29;84.30;100678.22;5083259;28;20016;-64
2021/08/13 04:51:44;;;;;;;25.70;19.77;;;;;;;18.40;83.81;100680.47;5084481;28;20297;-65
2021/08/13 04:54:11;;;;;;;28.85;19.42;;;;;;;18.45;82.92;100675.88;5084502;28;20032;-66
2021/08/13 04:56:36;;;;;;;22.50;17.23;;;;;;;18.45;82.80;100661.91;5084221;28;20021;-66
2021/08/13 04:59:02;;;;;;;25.48;18.42;;;;;;;18.52;82.45;100684.41;5084236;28;20092;-65
2021/08/13 05:01:27;;;;;;;25.20;16.58;;;;;;;18.50;81.88;100683.59;5084135;28;20032;-65
2021/08/13 05:03:53;;;;;;;22.70;17.13;;;;;;;18.49;81.37;100679.28;5084203;28;20028;-66
2021/08/13 05:06:19;;;;;;;25.92;16.65;;;;;;;18.49;81.38;100681.91;5084008;28;20029;-65
2021/08/13 05:08:44;;;;;;;22.80;16.85;;;;;;;18.50;80.92;100677.50;5084076;28;20074;-65
2021/08/13 05:11:10;;;;;;;18.80;16.08;;;;;;;18.46;80.66;100668.88;5084158;28;20042;-66
2021/08/13 05:13:35;;;;;;;26.38;17.77;;;;;;;18.49;80.91;100673.16;5083975;28;20507;-65
2021/08/13 05:16:00;;;;;;;26.20;18.20;;;;;;;18.55;80.36;100665.91;5083983;28;20036;-64
2021/08/13 05:18:26;;;;;;;23.27;16.55;;;;;;;18.58;80.51;100663.16;5083651;28;20105;-65
2021/08/13 05:20:51;;;;;;;19.25;15.60;;;;;;;18.65;80.30;100678.69;5083732;28;20040;-65
2021/08/13 05:23:16;;;;;;;21.25;16.52;;;;;;;18.72;80.15;100679.31;5082447;28;20274;-65
2021/08/13 05:25:42;;;;;;;27.88;17.23;;;;;;;18.75;79.70;100674.81;5083858;28;20244;-65
2021/08/13 05:28:07;;;;;;;23.13;18.17;;;;;;;18.78;79.33;100668.56;5083562;28;20467;-65
2021/08/13 05:30:33;;;;;;;23.50;16.73;;;;;;;18.79;79.40;100663.25;5083626;28;20021;-65
2021/08/13 05:32:58;;;;;;;22.52;16.42;;;;;;;18.83;79.13;100662.19;5083530;28;20076;-65
2021/08/13 05:35:23;;;;;;;20.60;15.70;;;;;;;18.90;79.21;100670.69;5083608;28;20021;-65
2021/08/13 05:37:49;;;;;;;22.20;16.30;;;;;;;18.97;78.78;100670.47;5083354;28;20020;-65
2021/08/13 05:40:15;;;;;;;21.67;17.20;;;;;;;19.04;78.73;100672.78;5083650;28;20024;-65
2021/08/13 05:42:40;;;;;;;22.77;17.58;;;;;;;19.05;78.26;100678.91;5083168;28;20050;-65
2021/08/13 05:45:06;;;;;;;22.52;17.65;;;;;;;19.05;78.41;100671.00;5083785;28;20024;-65
2021/08/13 05:47:33;;;;;;;25.90;19.52;;;;;;;19.03;78.14;100667.59;5081826;28;20021;-65
2021/08/13 05:49:59;;;;;;;24.52;18.58;;;;;;;19.05;77.60;100663.13;5083522;28;20024;-65
2021/08/13 05:52:25;;;;;;;26.17;19.65;;;;;;;18.93;77.37;100659.22;5082504;28;20028;-64
2021/08/13 05:54:50;;;;;;;28.45;20.60;;;;;;;18.91;77.72;100668.94;5083277;28;20078;-65
2021/08/13 05:57:15;;;;;;;30.98;18.63;;;;;;;18.86;77.40;100665.63;5083085;28;20020;-65
2021/08/13 05:59:40;;;;;;;30.50;19.60;;;;;;;18.91;77.55;100661.88;5082867;28;20016;-65
2021/08/13 06:02:06;;;;;;;27.98;20.38;;;;;;;18.83;77.05;100651.66;5083602;28;20048;-65
2021/08/13 06:04:31;;;;;;;28.42;20.98;;;;;;;18.86;76.81;100668.25;5083392;28;20051;-66
2021/08/13 06:06:56;;;;;;;29.75;20.65;;;;;;;18.82;76.81;100678.03;5083370;28;20016;-66
2021/08/13 06:09:22;;;;;;;30.27;18.85;;;;;;;18.83;76.97;100679.75;5083266;28;20024;-68
2021/08/13 06:11:47;;;;;;;23.63;18.27;;;;;;;18.86;77.10;100666.50;5081982;28;20017;-68
2021/08/13 06:14:13;;;;;;;23.38;17.90;;;;;;;18.97;76.93;100673.97;5083477;28;20107;-69
2021/08/13 06:16:38;;;;;;;23.45;19.08;;;;;;;19.09;76.33;100670.00;5083362;28;20044;-69
2021/08/13 06:19:03;;;;;;;26.20;17.10;;;;;;;19.18;76.20;100669.66;5083128;28;20048;-69
2021/08/13 06:21:30;;;;;;;25.73;17.45;;;;;;;19.35;75.48;100669.84;5083167;28;20437;-68
2021/08/13 06:23:56;;;;;;;20.73;15.25;;;;;;;19.44;75.13;100666.88;5083335;28;20029;-65
2021/08/13 06:26:21;;;;;;;22.52;16.23;;;;;;;19.51;73.77;100663.03;5083394;28;20397;-68
2021/08/13 06:28:46;;;;;;;19.35;14.77;;;;;;;19.58;73.79;100666.28;5083149;28;20060;-68
2021/08/13 06:31:12;;;;;;;18.85;14.05;;;;;;;19.68;73.28;100664.94;5081935;28;20031;-68
2021/08/13 06:33:37;;;;;;;17.58;13.70;;;;;;;19.72;71.65;100660.41;5081666;28;20025;-71
2021/08/13 06:36:03;;;;;;;18.00;14.45;;;;;;;19.57;70.91;100654.88;5083140;28;20336;-71
2021/08/13 06:38:28;;;;;;;17.70;12.32;;;;;;;19.54;71.06;100668.19;5083048;28;20060;-70
2021/08/13 06:40:53;;;;;;;18.17;12.80;;;;;;;19.50;70.88;100669.25;5083169;28;20108;-69
2021/08/13 06:43:19;;;;;;;16.30;12.70;;;;;;;19.43;70.89;100667.78;5083092;28;20022;-70
2021/08/13 06:45:45;;;;;;;19.58;13.73;;;;;;;19.32;70.40;100661.19;5083271;28;20046;-69
2021/08/13 06:48:11;;;;;;;20.52;13.35;;;;;;;19.21;70.81;100658.13;5082979;28;20067;-68
2021/08/13 06:50:36;;;;;;;17.58;12.38;;;;;;;19.15;71.21;100663.66;5081532;28;20021;-67
2021/08/13 06:53:02;;;;;;;16.63;12.52;;;;;;;19.16;71.40;100655.69;5083086;28;20052;-68
2021/08/13 06:55:27;;;;;;;17.63;12.50;;;;;;;19.24;71.10;100665.03;5083090;28;20023;-68
2021/08/13 06:57:52;;;;;;;19.30;12.82;;;;;;;19.23;70.94;100660.69;5082771;28;20016;-67
2021/08/13 07:00:18;;;;;;;17.90;12.52;;;;;;;19.29;70.81;100677.09;5083116;28;20024;-68
2021/08/13 07:02:47;;;;;;;20.33;12.57;;;;;;;19.27;70.33;100673.66;5082799;28;20021;-68
2021/08/13 07:05:16;;;;;;;18.83;13.18;;;;;;;19.27;70.40;100678.94;5086466;28;20088;-68
2021/08/13 07:07:43;;;;;;;19.13;12.65;;;;;;;19.28;70.80;100675.38;5086523;28;20031;-68
2021/08/13 07:10:10;;;;;;;17.70;12.05;;;;;;;19.42;70.72;100677.47;5086530;28;20439;-68
2021/08/13 07:12:36;;;;;;;16.00;10.25;;;;;;;19.65;70.83;100674.78;5086323;28;20123;-68
2021/08/13 07:15:04;;;;;;;14.52;10.63;;;;;;;19.81;69.18;100674.97;5086108;28;20036;-68
2021/08/13 07:17:29;;;;;;;15.75;10.90;;;;;;;19.91;68.90;100678.06;5084571;28;20016;-69
2021/08/13 07:19:54;;;;;;;15.48;9.77;;;;;;;20.07;68.72;100680.91;5086219;28;20111;-69
2021/08/13 07:22:20;;;;;;;12.95;10.52;;;;;;;20.16;68.67;100672.59;5086088;28;20025;-69
2021/08/13 07:24:45;;;;;;;13.75;10.43;;;;;;;20.33;67.92;100670.13;5086248;28;20039;-67
2021/08/13 07:27:10;;;;;;;14.40;10.88;;;;;;;20.26;67.30;100666.91;5086142;28;20080;-68
2021/08/13 07:29:36;;;;;;;18.45;11.77;;;;;;;20.17;67.59;100676.09;5086151;28;20020;-66
2021/08/13 07:32:01;;;;;;;16.90;11.15;;;;;;;20.05;67.88;100675.72;5084676;28;20495;-72
2021/08/13 07:34:27;;;;;;;19.70;11.05;;;;;;;19.97;68.03;100672.50;5086064;28;20024;-69
2021/08/13 07:36:52;;;;;;;17.05;11.02;;;;;;;19.87;68.58;100671.22;5084542;28;20027;-71
2021/08/13 07:39:17;;;;;;;16.40;11.43;;;;;;;19.89;68.71;100672.84;5085925;28;20020;-68
2021/08/13 07:41:43;;;;;;;16.77;11.02;;;;;;;19.83;69.05;100675.75;5085592;28;20017;-69
2021/08/13 07:44:08;;;;;;;16.52;11.77;;;;;;;19.80;69.27;100674.13;5085636;28;20130;-70
2021/08/13 07:46:34;;;;;;;15.38;11.27;;;;;;;19.80;69.60;100674.13;5085892;28;20039;-67
2021/08/13 07:48:59;;;;;;;15.30;10.00;;;;;;;19.85;69.68;100683.59;5085573;28;20024;-66
2021/08/13 07:51:25;;;;;;;17.02;9.43;;;;;;;19.98;68.99;100683.91;5085603;28;20024;-68
2021/08/13 07:53:51;;;;;;;12.07;8.43;;;;;;;20.04;68.67;100683.69;5085591;28;20027;-68
2021/08/13 07:56:16;;;;;;;11.80;7.38;;;;;;;20.12;68.61;100678.06;5085142;28;20021;-69
2021/08/13 07:58:41;;;;;;;10.18;6.13;;;;;;;20.42;67.64;100685.53;5085519;28;20102;-69
2021/08/13 08:01:07;;;;;;;9.98;4.75;;;;;;;20.81;64.74;100683.75;5085456;28;20482;-68
2021/08/13 08:03:32;;;;;;;13.05;5.85;;;;;;;21.17;63.96;100682.94;5085456;28;20047;-69
2021/08/13 08:05:57;;;;;;;9.07;5.60;;;;;;;21.45;63.15;100679.88;5085319;28;20112;-70
2021/08/13 08:08:23;;;;;;;9.68;5.47;;;;;;;22.09;62.39;100690.75;5085460;28;20461;-69
2021/08/13 08:10:48;;;;;;;9.77;4.38;;;;;;;22.78;59.75;100692.38;5085244;28;20028;-69
2021/08/13 08:13:15;;;;;;;6.55;4.05;;;;;;;23.13;58.05;100694.84;5085271;28;20016;-68
2021/08/13 08:15:41;;;;;;;6.57;4.53;;;;;;;23.86;56.32;100689.78;5083974;28;20028;-69
2021/08/13 08:18:07;;;;;;;9.23;4.15;;;;;;;24.54;52.93;100699.03;5084614;28;20041;-71
2021/08/13 08:20:32;;;;;;;7.55;4.00;;;;;;;24.73;50.40;100691.56;5085208;28;20028;-71
2021/08/13 08:22:58;;;;;;;8.00;4.20;;;;;;;24.54;49.72;100696.38;5083579;28;20070;-70
2021/08/13 08:25:23;;;;;;;9.82;3.80;;;;;;;24.10;50.06;100678.63;5084926;28;20028;-68
2021/08/13 08:27:48;;;;;;;4.88;3.63;;;;;;;24.37;50.10;100706.22;5084893;28;20028;-68
2021/08/13 08:30:14;;;;;;;4.50;3.00;;;;;;;24.34;49.19;100701.97;5084853;28;20036;-68
2021/08/13 08:32:40;;;;;;;5.78;2.80;;;;;;;24.53;47.45;100697.28;5084891;28;20025;-68
2021/08/13 08:35:05;;;;;;;6.63;3.28;;;;;;;24.90;46.17;100696.78;5083419;28;20069;-68
2021/08/13 08:37:31;;;;;;;6.45;3.13;;;;;;;24.79;45.33;100693.00;5084809;28;20013;-68
2021/08/13 08:39:56;;;;;;;9.07;4.00;;;;;;;24.90;46.01;100697.63;5084533;28;20036;-69
2021/08/13 08:42:22;;;;;;;5.70;2.75;;;;;;;24.77;46.14;100700.19;5084642;28;20407;-69
2021/08/13 08:44:48;;;;;;;6.78;2.95;;;;;;;24.74;46.44;100693.28;5084662;28;20028;-68
2021/08/13 08:47:16;;;;;;;5.72;3.05;;;;;;;24.92;46.25;100706.34;5084535;28;20025;-65
2021/08/13 08:49:43;;;;;;;10.18;3.42;;;;;;;24.98;46.03;100691.81;5084670;28;20028;-65
2021/08/13 08:52:10;;;;;;;6.32;3.28;;;;;;;25.07;46.04;100690.34;5084320;28;20027;-65
2021/08/13 08:54:37;;;;;;;8.30;3.25;;;;;;;25.45;44.77;100691.41;5084669;28;20260;-65
2021/08/13 08:57:05;;;;;;;6.97;2.97;;;;;;;25.76;44.67;100693.84;5084281;28;20039;-65
2021/08/13 08:59:31;;;;;;;10.07;3.15;;;;;;;26.17;44.55;100698.09;5084308;28;20021;-64
2021/08/13 09:01:57;;;;;;;8.55;4.32;;;;;;;26.59;43.08;100694.31;5084315;28;20028;-65
2021/08/13 09:04:22;;;;;;;5.32;3.13;;;;;;;26.85;41.31;100691.59;5084350;28;20020;-65
2021/08/13 09:06:48;;;;;;;14.85;3.92;;;;;;;26.98;41.71;100687.03;5084113;28;20396;-67
2021/08/13 09:09:13;;;;;;;6.75;2.83;;;;;;;27.10;39.79;100689.78;5084121;28;20016;-67
2021/08/13 09:11:41;;;;;;;5.57;3.35;;;;;;;27.12;40.76;100690.53;5084050;28;20020;-67
2021/08/13 09:14:08;;;;;;;5.93;3.05;;;;;;;27.44;41.27;100686.41;5084104;28;20039;-66
2021/08/13 09:16:34;;;;;;;5.47;2.78;;;;;;;27.71;39.72;100693.28;5082685;28;20028;-67
2021/08/13 09:19:04;;;;;;;6.97;3.10;;;;;;;27.82;39.17;100695.13;5083848;28;20127;-66
2021/08/13 09:21:30;;;;;;;5.95;2.92;;;;;;;27.83;40.08;100691.47;5099206;28;20443;-64
2021/08/13 09:23:59;;;;;;;8.13;3.10;;;;;;;27.71;39.55;100702.16;5083531;28;20062;-65
2021/08/13 09:26:25;;;;;;;7.05;3.42;;;;;;;27.55;40.20;100693.59;5083452;28;20026;-65
2021/08/13 09:28:54;;;;;;;6.00;3.10;;;;;;;27.53;40.39;100690.19;5083465;28;20020;-63
2021/08/13 09:31:27;;;;;;;6.35;3.20;;;;;;;27.65;40.89;100699.94;5083923;28;20052;-66
2021/08/13 09:34:10;;;;;;;6.25;3.50;;;;;;;28.11;39.11;100693.81;5083900;28;20017;-65
2021/08/13 09:36:55;;;;;;;5.10;3.17;;;;;;;28.36;38.26;100690.06;5083763;28;20040;-66
2021/08/13 09:39:29;;;;;;;6.90;3.00;;;;;;;28.36;37.44;100681.22;5083892;28;20033;-64
2021/08/13 09:42:00;;;;;;;8.55;2.92;;;;;;;28.14;38.05;100677.56;5083591;28;20021;-64
2021/08/13 09:44:31;;;;;;;5.60;2.75;;;;;;;27.81;38.30;100674.75;5083769;28;20058;-65
2021/08/13 09:47:02;;;;;;;6.80;2.85;;;;;;;27.09;39.62;100667.63;5082324;28;20025;-65
2021/08/13 09:49:30;;;;;;;5.78;2.28;;;;;;;26.58;40.62;100674.81;5083566;28;20029;-65
2021/08/13 09:51:56;;;;;;;7.57;2.92;;;;;;;26.07;41.55;100675.78;5083671;28;20024;-65
2021/08/13 09:54:28;;;;;;;5.95;2.70;;;;;;;25.41;42.30;100671.34;5083208;28;20119;-65
2021/08/13 09:57:07;;;;;;;6.38;2.83;;;;;;;24.76;43.67;100667.47;5083091;28;20017;-65
2021/08/13 09:59:32;;;;;;;7.80;2.95;;;;;;;24.62;45.22;100673.69;5082341;28;20488;-65
2021/08/13 10:01:57;;;;;;;7.18;3.22;;;;;;;24.86;46.01;100670.41;5082345;28;20029;-65
2021/08/13 10:04:33;;;;;;;4.93;2.78;;;;;;;25.33;45.67;100670.06;5082660;28;20017;-66
2021/08/13 10:06:58;;;;;;;5.22;3.35;;;;;;;25.77;45.85;100679.59;5081676;28;20016;-66
2021/08/13 10:09:29;;;;;;;8.27;3.40;;;;;;;26.22;44.97;100669.34;5081984;28;20055;-67
2021/08/13 10:11:59;;;;;;;5.40;3.40;;;;;;;26.11;44.65;100656.81;5081878;28;20027;-66
2021/08/13 10:14:36;;;;;;;5.13;3.42;;;;;;;25.97;45.30;100657.81;5082658;28;20028;-65
2021/08/13 10:17:15;;;;;;;4.93;3.10;;;;;;;26.06;44.48;100664.28;5081892;28;20071;-65
2021/08/13 10:19:45;;;;;;;5.72;3.17;;;;;;;26.53;43.81;100671.69;5083200;28;20066;-65
2021/08/13 10:22:12;;;;;;;7.25;3.08;;;;;;;27.06;43.66;100673.19;5083230;28;20032;-65
2021/08/13 10:24:38;;;;;;;7.05;3.65;;;;;;;27.38;41.84;100662.88;5083301;28;20017;-65
2021/08/13 10:27:05;;;;;;;7.75;3.10;;;;;;;27.57;41.70;100660.50;5082056;28;20044;-66
2021/08/13 10:29:30;;;;;;;5.47;3.13;;;;;;;27.45;40.96;100661.44;5083177;28;20124;-66
2021/08/13 10:31:57;;;;;;;6.90;3.05;;;;;;;27.01;41.46;100661.19;5083391;28;20029;-65
2021/08/13 10:34:22;;;;;;;6.82;3.38;;;;;;;26.68;42.27;100664.38;5083181;28;20114;-65
2021/08/13 10:36:49;;;;;;;5.60;2.80;;;;;;;26.45;42.10;100658.06;5083048;28;20024;-64
2021/08/13 10:39:19;;;;;;;5.15;2.60;;;;;;;26.45;42.76;100666.03;5084702;28;20025;-66
2021/08/13 10:41:49;;;;;;;7.05;3.00;;;;;;;26.31;43.55;100661.69;5086838;28;20035;-65
2021/08/13 10:44:18;;;;;;;5.53;3.13;;;;;;;26.05;43.63;100661.72;5086675;28;20028;-63
2021/08/13 10:46:45;;;;;;;6.63;2.65;;;;;;;25.65;44.26;100660.00;5086803;28;20070;-65
2021/08/13 10:49:12;;;;;;;5.45;2.80;;;;;;;25.59;45.14;100662.09;5086407;28;20035;-64
2021/08/13 10:51:38;;;;;;;5.55;3.13;;;;;;;25.71;43.83;100665.78;5086639;28;20046;-64
2021/08/13 10:54:05;;;;;;;5.88;2.60;;;;;;;25.64;44.30;100664.47;5086558;28;20084;-65
2021/08/13 10:56:42;;;;;;;4.50;2.78;;;;;;;25.61;44.71;100662.00;5086618;28;20046;-64
2021/08/13 10:59:08;;;;;;;6.35;2.78;;;;;;;25.64;44.58;100664.47;5086312;28;20024;-64
2021/08/13 11:01:33;;;;;;;5.60;2.75;;;;;;;25.52;44.62;100652.00;5086448;28;20096;-64
2021/08/13 11:03:58;;;;;;;5.95;3.10;;;;;;;25.47;45.50;100647.84;5086396;28;20024;-64
2021/08/13 11:06:36;;;;;;;7.38;3.15;;;;;;;25.43;45.60;100642.84;5086347;28;20056;-64
2021/08/13 11:09:03;;;;;;;4.57;2.47;;;;;;;25.53;44.73;100637.78;5086145;28;20021;-63
2021/08/13 11:11:54;;;;;;;6.65;2.70;;;;;;;25.46;45.63;100640.81;5086149;28;20036;-66
2021/08/13 11:14:26;;;;;;;5.75;2.75;;;;;;;25.36;45.90;100639.75;5086073;28;20153;-65